Time;durP1;ratioP1;P1;durP2;ratioP2;P2;SDS_P1;SDS_P2;PMS_P1;PMS_P2;Temp;Humidity;BMP_temperature;BMP_pressure;BME280_temperature;BME280_humidity;BME280_pressure;Samples;Min_cycle;Max_cycle;Signal;HPM_P1;HPM_P2
2023/03/28 00:01:50;;;;;;;7.10;1.83;;;2.50;99.90;;;;;;6206904;23;20158;-79
2023/03/28 00:04:21;;;;;;;10.07;2.30;;;2.50;99.90;;;;;;6207334;23;20159;-79
2023/03/28 00:06:47;;;;;;;8.00;2.50;;;2.60;99.90;;;;;;6208455;23;20134;-79
2023/03/28 00:09:13;;;;;;;8.50;2.33;;;2.60;87.20;;;;;;6209104;23;20150;-78
2023/03/28 00:11:38;;;;;;;12.80;2.53;;;2.60;99.90;;;;;;6181774;23;20170;-79
2023/03/28 00:14:07;;;;;;;12.10;3.33;;;2.50;99.90;;;;;;6181592;23;21195;-78
2023/03/28 00:16:36;;;;;;;7.40;2.30;;;2.50;99.80;;;;;;6209067;23;20161;-78
2023/03/28 00:19:05;;;;;;;9.73;3.20;;;2.60;99.00;;;;;;6182434;23;20154;-78
2023/03/28 00:21:34;;;;;;;8.30;2.37;;;2.50;99.90;;;;;;6208670;23;20224;-78
2023/03/28 00:24:01;;;;;;;8.30;2.63;;;2.50;99.90;;;;;;6208711;23;20177;-78
2023/03/28 00:26:29;;;;;;;11.67;3.33;;;2.50;99.90;;;;;;6208648;23;20585;-79
2023/03/28 00:28:55;;;;;;;9.73;2.90;;;2.50;99.90;;;;;;6209315;23;20163;-78
2023/03/28 00:31:23;;;;;;;9.03;2.90;;;2.40;99.90;;;;;;6208396;23;20150;-79
2023/03/28 00:33:48;;;;;;;11.53;3.47;;;2.40;99.90;;;;;;6208592;23;20150;-78
2023/03/28 00:36:21;;;;;;;10.50;3.53;;;2.30;99.90;;;;;;6208960;23;20174;-78
2023/03/28 00:38:48;;;;;;;10.90;3.70;;;2.30;99.90;;;;;;6181992;23;20155;-78
2023/03/28 00:41:17;;;;;;;13.27;3.57;;;2.30;99.90;;;;;;6208612;23;20241;-78
2023/03/28 00:43:48;;;;;;;9.33;3.03;;;2.30;99.90;;;;;;6181938;23;20174;-79
2023/03/28 00:46:22;;;;;;;10.00;3.60;;;2.30;99.90;;;;;;6208779;23;20178;-79
2023/03/28 00:48:53;;;;;;;9.43;3.40;;;2.30;99.90;;;;;;6208526;23;20155;-78
2023/03/28 00:51:25;;;;;;;11.83;3.03;;;2.20;99.90;;;;;;6208585;23;20138;-79
2023/03/28 00:53:56;;;;;;;9.33;3.23;;;2.20;99.90;;;;;;6208326;23;20135;-78
2023/03/28 00:56:24;;;;;;;11.27;2.83;;;2.10;99.90;;;;;;6182364;23;20567;-79
2023/03/28 00:58:50;;;;;;;14.47;3.83;;;2.10;99.90;;;;;;6208526;23;20155;-78
2023/03/28 01:01:18;;;;;;;10.73;3.37;;;2.10;99.90;;;;;;6181967;23;20653;-79
2023/03/28 01:03:51;;;;;;;8.20;3.27;;;2.10;99.90;;;;;;6208467;23;20236;-78
2023/03/28 01:06:20;;;;;;;11.23;3.10;;;2.10;99.90;;;;;;6208909;23;20232;-78
2023/03/28 01:08:47;;;;;;;12.60;3.27;;;2.10;99.90;;;;;;6208825;23;20174;-78
2023/03/28 01:11:14;;;;;;;7.63;2.77;;;2.20;99.90;;;;;;6208702;23;20649;-79
2023/03/28 01:13:47;;;;;;;9.03;3.20;;;2.20;99.90;;;;;;6208579;23;20200;-78
2023/03/28 01:16:14;;;;;;;8.40;2.90;;;2.20;99.90;;;;;;6208867;23;20224;-79
2023/03/28 01:18:40;;;;;;;10.83;3.53;;;2.20;99.90;;;;;;6181961;23;20166;-78
2023/03/28 01:21:41;;;;;;;9.90;3.00;;;2.20;99.90;;;;;;6182601;23;20159;-78
2023/03/28 01:24:31;;;;;;;9.03;2.77;;;2.10;99.90;;;;;;6160025;23;20166;-79
2023/03/28 01:27:08;;;;;;;8.60;2.67;;;2.30;99.90;;;;;;6208668;23;20653;-79
2023/03/28 01:30:10;;;;;;;9.77;3.00;;;2.30;99.90;;;;;;6208579;23;20225;-79
2023/03/28 01:33:16;;;;;;;13.13;3.10;;;2.10;99.90;;;;;;6208465;23;20473;-79
2023/03/28 01:36:03;;;;;;;6.77;2.13;;;2.10;99.90;;;;;;6181520;23;20656;-79
2023/03/28 01:38:46;;;;;;;7.80;2.53;;;2.30;99.90;;;;;;6181704;23;20363;-79
2023/03/28 01:41:35;;;;;;;9.67;2.53;;;2.40;99.90;;;;;;6208490;23;20188;-78
2023/03/28 01:44:24;;;;;;;5.93;2.30;;;2.40;99.90;;;;;;6208277;23;20142;-79
2023/03/28 01:47:03;;;;;;;14.30;2.60;;;2.40;99.90;;;;;;6208395;23;20143;-79
2023/03/28 01:50:07;;;;;;;7.60;2.33;;;2.40;99.90;;;;;;6208638;23;20200;-79
2023/03/28 01:53:09;;;;;;;13.17;2.77;;;2.40;99.90;;;;;;6107646;23;20158;-77
2023/03/28 01:55:39;;;;;;;10.57;2.30;;;2.30;99.90;;;;;;6208746;23;20177;-78
2023/03/28 01:58:29;;;;;;;12.00;2.40;;;2.40;99.90;;;;;;6209522;23;20162;-78
2023/03/28 02:01:21;;;;;;;10.63;2.40;;;2.40;98.30;;;;;;6181315;23;20563;-79
2023/03/28 02:03:51;;;;;;;8.40;2.30;;;2.50;92.50;;;;;;6207817;23;20604;-78
2023/03/28 02:06:20;;;;;;;7.23;2.03;;;2.40;99.90;;;;;;6208397;23;20193;-79
2023/03/28 02:08:48;;;;;;;9.23;2.70;;;2.50;95.70;;;;;;6207929;23;20479;-77
2023/03/28 02:11:13;;;;;;;12.50;2.50;;;2.50;69.30;;;;;;6181180;23;20192;-78
2023/03/28 02:13:44;;;;;;;8.80;2.00;;;2.50;80.50;;;;;;6207903;23;20161;-79
2023/03/28 02:16:12;;;;;;;10.33;2.57;;;2.50;87.00;;;;;;6208274;23;20178;-79
2023/03/28 02:18:42;;;;;;;7.77;2.40;;;2.50;76.90;;;;;;6208579;23;20154;-79
2023/03/28 02:21:18;;;;;;;9.63;2.17;;;2.50;87.20;;;;;;6181730;23;20165;-78
2023/03/28 02:23:52;;;;;;;9.37;2.10;;;2.50;89.60;;;;;;6208288;23;20192;-78
2023/03/28 02:26:20;;;;;;;6.33;1.70;;;2.60;80.80;;;;;;6207978;23;20217;-79
2023/03/28 02:28:49;;;;;;;9.87;2.37;;;2.60;57.60;;;;;;6208182;23;20566;-79
2023/03/28 02:31:15;;;;;;;9.60;2.47;;;2.60;62.00;;;;;;6181154;23;20162;-78
2023/03/28 02:33:46;;;;;;;11.10;2.50;;;2.60;93.80;;;;;;6180392;23;20154;-79
2023/03/28 02:36:57;;;;;;;10.00;2.17;;;2.70;85.30;;;;;;6207880;23;20177;-77
2023/03/28 02:39:40;;;;;;;8.30;2.30;;;2.70;60.10;;;;;;6150200;23;20185;-78
2023/03/28 02:42:09;;;;;;;7.87;2.20;;;2.60;64.00;;;;;;6207621;23;20189;-77
2023/03/28 02:44:34;;;;;;;8.23;2.07;;;2.60;70.90;;;;;;6207670;23;20178;-77
2023/03/28 02:47:17;;;;;;;10.00;2.40;;;2.60;79.90;;;;;;6208141;23;20163;-78
2023/03/28 02:49:57;;;;;;;7.97;2.27;;;2.50;82.70;;;;;;6208339;23;20135;-78
2023/03/28 02:52:35;;;;;;;6.00;2.43;;;2.50;94.50;;;;;;6207821;23;20143;-78
2023/03/28 02:55:27;;;;;;;6.90;2.70;;;2.50;99.90;;;;;;6208411;23;20627;-78
2023/03/28 02:58:01;;;;;;;7.97;2.97;;;2.60;99.20;;;;;;6207641;23;20142;-77
2023/03/28 03:00:26;;;;;;;5.77;2.70;;;2.60;90.80;;;;;;6208202;23;20139;-77
2023/03/28 03:02:52;;;;;;;6.63;3.30;;;2.50;87.70;;;;;;6207610;23;20154;-79
2023/03/28 03:05:19;;;;;;;11.30;3.60;;;2.50;93.30;;;;;;6208161;23;20185;-78
2023/03/28 03:07:46;;;;;;;9.10;3.20;;;2.40;90.90;;;;;;6207406;23;20039;-77
2023/03/28 03:10:13;;;;;;;9.47;2.83;;;2.30;99.90;;;;;;6208161;23;20257;-78
2023/03/28 03:12:39;;;;;;;9.90;2.70;;;2.20;99.90;;;;;;6181356;23;20161;-78
2023/03/28 03:15:06;;;;;;;9.50;4.03;;;2.30;99.90;;;;;;6207699;23;20174;-78
2023/03/28 03:17:32;;;;;;;9.00;2.50;;;2.20;99.90;;;;;;6181410;23;20162;-78
2023/03/28 03:19:58;;;;;;;10.70;3.03;;;2.20;99.90;;;;;;6207856;23;20162;-78
2023/03/28 03:22:24;;;;;;;9.57;2.80;;;2.30;99.90;;;;;;6207499;23;20220;-78
2023/03/28 03:24:50;;;;;;;8.13;2.60;;;2.30;99.90;;;;;;6207467;23;20189;-77
2023/03/28 03:27:20;;;;;;;9.00;3.37;;;2.20;99.90;;;;;;6207595;23;20150;-77
2023/03/28 03:29:47;;;;;;;8.10;3.00;;;2.10;99.90;;;;;;6207771;23;20629;-77
2023/03/28 03:32:13;;;;;;;6.90;2.63;;;2.10;99.90;;;;;;6207762;23;20946;-77
2023/03/28 03:34:40;;;;;;;13.57;3.47;;;2.00;99.90;;;;;;6207336;23;20536;-77
2023/03/28 03:37:07;;;;;;;7.57;2.80;;;2.00;99.90;;;;;;6207584;23;20157;-77
2023/03/28 03:39:34;;;;;;;6.40;2.70;;;1.90;99.90;;;;;;6182203;23;20162;-76
2023/03/28 03:42:00;;;;;;;10.37;3.10;;;1.80;99.90;;;;;;6208990;23;20198;-76
2023/03/28 03:44:26;;;;;;;10.73;2.50;;;1.80;99.90;;;;;;6208653;23;20178;-77
2023/03/28 03:46:51;;;;;;;8.07;2.53;;;1.80;99.90;;;;;;6182047;23;20159;-78
2023/03/28 03:49:17;;;;;;;10.57;3.30;;;1.80;99.90;;;;;;6209395;23;20147;-77
2023/03/28 03:51:43;;;;;;;8.10;2.43;;;1.90;99.90;;;;;;6209664;23;20150;-78
2023/03/28 03:54:08;;;;;;;9.27;2.50;;;2.10;99.90;;;;;;6209341;23;20143;-78
2023/03/28 03:56:34;;;;;;;9.53;2.53;;;2.20;99.90;;;;;;6209702;23;20154;-78
2023/03/28 03:59:00;;;;;;;12.00;2.70;;;2.30;99.90;;;;;;6209464;23;20154;-78
2023/03/28 04:01:28;;;;;;;8.43;3.00;;;2.30;99.90;;;;;;6209772;23;20165;-78
2023/03/28 04:03:55;;;;;;;8.17;2.73;;;2.30;99.90;;;;;;6182706;23;20165;-78
2023/03/28 04:06:20;;;;;;;7.90;2.50;;;2.20;99.90;;;;;;6209450;23;20182;-78
2023/03/28 04:08:46;;;;;;;9.83;2.70;;;2.10;99.90;;;;;;6209600;23;20182;-77
2023/03/28 04:11:12;;;;;;;10.13;2.87;;;2.00;99.90;;;;;;6209819;23;20163;-78
2023/03/28 04:13:37;;;;;;;8.17;3.00;;;1.90;99.90;;;;;;6209501;23;20617;-77
2023/03/28 04:16:03;;;;;;;9.50;2.77;;;1.90;99.90;;;;;;6209227;23;20174;-78
2023/03/28 04:18:29;;;;;;;10.30;3.50;;;1.90;99.90;;;;;;6182466;23;20165;-78
2023/03/28 04:20:57;;;;;;;10.50;2.80;;;1.90;99.90;;;;;;6182672;23;20197;-78
2023/03/28 04:23:24;;;;;;;9.43;2.80;;;1.80;99.90;;;;;;6181710;23;20162;-78
2023/03/28 04:25:54;;;;;;;10.30;2.60;;;1.80;99.90;;;;;;6182279;23;20545;-79
2023/03/28 04:28:24;;;;;;;7.47;2.93;;;1.80;99.90;;;;;;6209219;23;20610;-78
2023/03/28 04:30:53;;;;;;;14.27;3.50;;;1.80;99.90;;;;;;6182562;23;20209;-79
2023/03/28 04:33:23;;;;;;;9.53;2.70;;;1.70;99.90;;;;;;6209052;23;20151;-78
2023/03/28 04:35:59;;;;;;;11.23;3.10;;;1.80;99.90;;;;;;6209182;23;20277;-77
2023/03/28 04:38:25;;;;;;;7.10;3.30;;;1.80;99.90;;;;;;6209027;23;20138;-78
2023/03/28 04:40:57;;;;;;;5.53;3.27;;;1.80;99.90;;;;;;6209094;23;20165;-78
2023/03/28 04:43:23;;;;;;;10.67;3.53;;;1.60;99.90;;;;;;6209092;23;20155;-77
2023/03/28 04:45:49;;;;;;;11.27;3.70;;;1.50;99.90;;;;;;6208697;23;20221;-78
2023/03/28 04:48:14;;;;;;;11.43;3.47;;;1.50;99.90;;;;;;6209278;23;20238;-78
2023/03/28 04:50:40;;;;;;;9.23;3.27;;;1.50;99.90;;;;;;6181562;23;20158;-78
2023/03/28 04:53:05;;;;;;;12.03;3.57;;;1.40;99.90;;;;;;6209089;23;20150;-78
2023/03/28 04:55:31;;;;;;;8.77;3.20;;;1.40;99.90;;;;;;6182453;23;20185;-77
2023/03/28 04:57:57;;;;;;;14.40;4.50;;;1.50;99.90;;;;;;6208934;23;20583;-77
2023/03/28 05:00:24;;;;;;;10.77;3.63;;;1.40;99.90;;;;;;6208580;23;20593;-78
2023/03/28 05:02:53;;;;;;;9.83;3.33;;;1.30;99.90;;;;;;6209029;23;20158;-78
2023/03/28 05:05:19;;;;;;;9.33;4.17;;;1.30;99.90;;;;;;6208903;23;20186;-78
2023/03/28 05:07:45;;;;;;;11.07;3.80;;;1.30;99.90;;;;;;6209575;23;20564;-78
2023/03/28 05:10:10;;;;;;;13.97;4.37;;;1.30;99.90;;;;;;6208986;23;20167;-78
2023/03/28 05:12:36;;;;;;;7.53;4.17;;;1.30;99.90;;;;;;6208877;23;20151;-79
2023/03/28 05:15:03;;;;;;;11.30;4.10;;;1.30;99.90;;;;;;6208889;23;20200;-78
2023/03/28 05:17:29;;;;;;;12.60;4.17;;;1.30;99.90;;;;;;6209045;23;20161;-78
2023/03/28 05:19:54;;;;;;;13.53;4.47;;;1.20;99.90;;;;;;6182375;23;20540;-78
2023/03/28 05:22:20;;;;;;;7.83;3.37;;;1.30;99.90;;;;;;6209143;23;20142;-78
2023/03/28 05:24:46;;;;;;;8.20;3.87;;;1.30;1.00;;;;;;6208574;23;20199;-78
2023/03/28 05:27:11;;;;;;;10.83;3.57;;;1.30;99.90;;;;;;6208334;23;20138;-78
2023/03/28 05:29:37;;;;;;;8.00;3.77;;;1.30;99.90;;;;;;6207157;23;20139;-78
2023/03/28 05:32:03;;;;;;;8.30;3.57;;;1.50;99.90;;;;;;6207701;23;20512;-78
2023/03/28 05:34:28;;;;;;;9.87;3.87;;;1.60;99.90;;;;;;6181302;23;20698;-78
2023/03/28 05:36:56;;;;;;;12.53;3.53;;;1.70;99.90;;;;;;6207692;23;20162;-78
2023/03/28 05:39:22;;;;;;;10.07;3.43;;;1.70;99.90;;;;;;6207963;23;20663;-77
2023/03/28 05:41:48;;;;;;;12.30;3.70;;;1.70;99.90;;;;;;6182272;23;20256;-78
2023/03/28 05:44:14;;;;;;;8.50;3.60;;;1.70;99.90;;;;;;6208980;23;20193;-78
2023/03/28 05:46:39;;;;;;;15.23;5.93;;;1.60;99.90;;;;;;6182838;23;20192;-78
2023/03/28 05:49:05;;;;;;;16.97;5.97;;;1.60;99.90;;;;;;6209094;23;20177;-78
2023/03/28 05:51:30;;;;;;;14.93;5.00;;;1.60;99.90;;;;;;6208891;23;20241;-78
2023/03/28 05:53:56;;;;;;;9.30;4.30;;;1.80;99.90;;;;;;6209495;23;20150;-78
2023/03/28 05:56:22;;;;;;;12.30;7.17;;;1.80;99.90;;;;;;6209380;23;20213;-77
2023/03/28 05:58:47;;;;;;;14.83;5.57;;;1.80;99.90;;;;;;6208103;23;20163;-77
2023/03/28 06:01:17;;;;;;;15.57;5.27;;;1.80;99.90;;;;;;6181827;23;20150;-78
2023/03/28 06:03:44;;;;;;;12.80;6.40;;;2.00;99.90;;;;;;6209239;23;20163;-77
2023/03/28 06:06:10;;;;;;;16.80;6.93;;;2.00;99.90;;;;;;6210166;23;20193;-77
2023/03/28 06:08:36;;;;;;;15.00;6.73;;;1.90;99.90;;;;;;6210350;23;20139;-78
2023/03/28 06:11:02;;;;;;;12.33;5.83;;;2.00;99.90;;;;;;6183649;23;20150;-77
2023/03/28 06:13:29;;;;;;;13.03;6.00;;;2.10;99.90;;;;;;6184026;23;20158;-78
2023/03/28 06:15:55;;;;;;;15.33;4.80;;;2.20;99.90;;;;;;6211377;23;20174;-78
2023/03/28 06:18:20;;;;;;;11.90;4.40;;;2.40;99.90;;;;;;6184487;23;20209;-77
2023/03/28 06:20:46;;;;;;;9.23;3.33;;;2.60;99.90;;;;;;6212205;23;20303;-76
2023/03/28 06:23:12;;;;;;;13.43;3.13;;;2.80;79.80;;;;;;6183845;23;20594;-78
2023/03/28 06:25:37;;;;;;;11.50;3.23;;;3.00;69.30;;;;;;6210548;23;20634;-77
2023/03/28 06:28:03;;;;;;;12.87;2.70;;;3.10;45.60;;;;;;6210456;23;20142;-78
2023/03/28 06:30:28;;;;;;;9.47;2.50;;;3.00;41.80;;;;;;6210597;23;20865;-77
2023/03/28 06:32:54;;;;;;;10.53;2.33;;;3.10;40.70;;;;;;6210716;23;20208;-76
2023/03/28 06:35:20;;;;;;;9.00;2.73;;;3.20;27.90;;;;;;6209949;23;20677;-76
2023/03/28 06:37:45;;;;;;;10.33;2.40;;;3.30;23.10;;;;;;6183549;23;20162;-78
2023/03/28 06:40:11;;;;;;;7.83;2.17;;;3.40;17.70;;;;;;6209434;23;20158;-78
2023/03/28 06:42:37;;;;;;;6.60;1.90;;;3.50;9.10;;;;;;6208292;23;20173;-77
2023/03/28 06:45:03;;;;;;;7.10;1.97;;;3.40;8.80;;;;;;6208017;23;20975;-78
2023/03/28 06:47:29;;;;;;;7.37;2.20;;;3.30;14.20;;;;;;6181749;23;20154;-77
2023/03/28 06:49:54;;;;;;;12.03;2.27;;;3.30;18.70;;;;;;6208646;23;20143;-78
2023/03/28 06:52:22;;;;;;;9.07;2.33;;;3.30;13.70;;;;;;6181271;23;20966;-78
2023/03/28 06:54:47;;;;;;;9.33;2.27;;;3.50;10.60;;;;;;6180640;23;20178;-77
2023/03/28 06:57:13;;;;;;;12.33;2.67;;;3.60;7.30;;;;;;6208305;23;20212;-78
2023/03/28 06:59:39;;;;;;;8.43;2.80;;;3.70;1.00;;;;;;6180153;23;20158;-78
2023/03/28 07:02:05;;;;;;;11.87;2.20;;;3.80;1.00;;;;;;6207650;23;20155;-77
2023/03/28 07:04:31;;;;;;;10.07;2.20;;;3.80;1.00;;;;;;6207336;23;20181;-78
2023/03/28 07:06:57;;;;;;;8.80;2.73;;;3.80;1.00;;;;;;6208280;23;20901;-78
2023/03/28 07:09:22;;;;;;;9.23;2.13;;;3.90;1.00;;;;;;6207689;23;20161;-78
2023/03/28 07:11:48;;;;;;;8.17;2.13;;;3.90;1.00;;;;;;6207510;23;20159;-77
2023/03/28 07:14:13;;;;;;;7.97;1.80;;;3.90;1.00;;;;;;6182885;23;20142;-77
2023/03/28 07:16:39;;;;;;;11.63;2.60;;;3.80;1.00;;;;;;6209636;23;20233;-77
2023/03/28 07:19:05;;;;;;;7.10;2.27;;;4.00;1.00;;;;;;6209850;23;20595;-76
2023/03/28 07:21:30;;;;;;;6.27;2.03;;;4.10;1.00;;;;;;6209455;23;20186;-77
2023/03/28 07:23:56;;;;;;;7.77;2.17;;;4.20;1.00;;;;;;6183561;23;20158;-77
2023/03/28 07:26:22;;;;;;;11.60;2.43;;;4.30;1.00;;;;;;6209934;23;20186;-77
2023/03/28 07:28:48;;;;;;;8.90;2.13;;;4.50;1.00;;;;;;6209901;23;20157;-77
2023/03/28 07:31:14;;;;;;;11.67;2.70;;;4.50;1.00;;;;;;6182974;23;20158;-77
2023/03/28 07:33:40;;;;;;;7.00;2.07;;;4.60;1.00;;;;;;6209216;23;20178;-77
2023/03/28 07:36:08;;;;;;;10.10;2.40;;;4.60;1.00;;;;;;6209029;23;20610;-77
2023/03/28 07:38:34;;;;;;;10.60;3.13;;;4.60;1.00;;;;;;6183449;23;20155;-77
2023/03/28 07:41:00;;;;;;;9.90;2.60;;;4.60;1.00;;;;;;6182959;23;20178;-77
2023/03/28 07:43:25;;;;;;;6.73;2.10;;;4.50;1.00;;;;;;6208312;23;20536;-76
2023/03/28 07:45:52;;;;;;;8.40;2.07;;;4.40;1.00;;;;;;6207159;23;20182;-77
2023/03/28 07:48:18;;;;;;;7.30;2.20;;;4.50;1.00;;;;;;6207596;23;20150;-77
2023/03/28 07:50:44;;;;;;;7.67;2.73;;;4.60;1.00;;;;;;6203441;23;20182;-77
2023/03/28 07:53:10;;;;;;;12.77;2.93;;;4.60;1.00;;;;;;6206857;23;20390;-77
2023/03/28 07:55:37;;;;;;;7.60;2.73;;;4.60;1.00;;;;;;6180065;23;20182;-77
2023/03/28 07:58:03;;;;;;;5.70;1.87;;;4.60;1.00;;;;;;6207066;23;20166;-77
2023/03/28 08:00:28;;;;;;;10.33;2.77;;;4.70;1.00;;;;;;6207809;23;20150;-77
2023/03/28 08:02:56;;;;;;;11.33;2.67;;;4.60;1.00;;;;;;6205751;23;20257;-77
2023/03/28 08:05:22;;;;;;;8.00;2.63;;;4.80;1.00;;;;;;6207411;23;20204;-77
2023/03/28 08:07:51;;;;;;;11.27;2.67;;;5.00;1.00;;;;;;6208162;23;20154;-77
2023/03/28 08:10:16;;;;;;;10.43;3.10;;;5.10;1.00;;;;;;6208198;23;20154;-77
2023/03/28 08:12:42;;;;;;;10.97;3.03;;;5.10;1.00;;;;;;6208141;23;20162;-77
2023/03/28 08:15:08;;;;;;;8.40;2.47;;;5.20;1.00;;;;;;6208734;23;20643;-76
2023/03/28 08:17:34;;;;;;;9.03;2.83;;;5.30;1.00;;;;;;6207406;23;20161;-77
2023/03/28 08:19:59;;;;;;;9.47;2.20;;;5.20;1.00;;;;;;6210169;23;20154;-77
2023/03/28 08:22:25;;;;;;;11.20;2.20;;;5.30;1.00;;;;;;6210083;23;20207;-77
2023/03/28 08:24:51;;;;;;;8.50;2.77;;;5.20;1.00;;;;;;6209205;23;20213;-77
2023/03/28 08:27:17;;;;;;;10.07;2.70;;;5.30;1.00;;;;;;6210101;23;20158;-77
2023/03/28 08:29:43;;;;;;;6.17;2.40;;;5.40;1.00;;;;;;6184869;23;20155;-79
2023/03/28 08:32:09;;;;;;;10.20;2.63;;;5.60;1.00;;;;;;6210889;23;20595;-78
2023/03/28 08:34:34;;;;;;;10.33;2.60;;;5.60;1.00;;;;;;6210171;23;20170;-77
2023/03/28 08:37:00;;;;;;;7.67;2.40;;;5.60;1.00;;;;;;6182876;23;20189;-78
2023/03/28 08:39:26;;;;;;;7.63;2.27;;;5.70;1.00;;;;;;6210430;23;20159;-78
2023/03/28 08:42:26;;;;;;;9.73;2.40;;;5.80;1.00;;;;;;6212318;23;20177;-77
2023/03/28 08:44:55;;;;;;;11.00;2.60;;;6.00;1.00;;;;;;6184118;23;20209;-78
2023/03/28 08:47:31;;;;;;;7.73;2.30;;;6.10;1.00;;;;;;6213112;23;20185;-79
2023/03/28 08:50:14;;;;;;;7.40;2.47;;;6.00;1.00;;;;;;6212083;23;20143;-78
2023/03/28 08:52:42;;;;;;;9.73;2.10;;;6.00;1.00;;;;;;6211854;23;20134;-78
2023/03/28 08:55:22;;;;;;;10.43;2.77;;;6.10;1.00;;;;;;6210401;23;20201;-77
2023/03/28 08:57:52;;;;;;;8.67;2.57;;;6.10;1.00;;;;;;6210214;23;20143;-77
2023/03/28 09:00:35;;;;;;;9.23;2.10;;;6.20;1.00;;;;;;6211066;23;20582;-78
2023/03/28 09:03:01;;;;;;;6.63;1.77;;;6.10;1.00;;;;;;6209578;23;20902;-78
2023/03/28 09:05:42;;;;;;;7.83;2.50;;;5.90;1.00;;;;;;6184198;23;20186;-77
2023/03/28 09:08:16;;;;;;;7.73;1.80;;;6.10;1.00;;;;;;6211100;23;20139;-78
2023/03/28 09:10:46;;;;;;;9.27;2.33;;;6.20;1.00;;;;;;6211278;23;20918;-78
2023/03/28 09:13:25;;;;;;;6.30;2.20;;;6.50;1.00;;;;;;6211305;23;20155;-78
2023/03/28 09:16:07;;;;;;;9.47;2.33;;;6.60;1.00;;;;;;6210897;23;20201;-77
2023/03/28 09:19:04;;;;;;;8.07;2.10;;;6.60;1.00;;;;;;6182417;23;20154;-78
2023/03/28 09:21:39;;;;;;;8.87;2.63;;;6.80;1.00;;;;;;6210295;23;20165;-77
2023/03/28 09:24:52;;;;;;;9.67;3.00;;;6.90;1.00;;;;;;6211425;23;20146;-77
2023/03/28 09:27:30;;;;;;;10.20;4.10;;;7.00;1.00;;;;;;6165294;23;20599;-76
2023/03/28 09:30:17;;;;;;;9.20;3.97;;;6.50;1.00;;;;;;6209366;23;20141;-78
2023/03/28 09:32:43;;;;;;;8.10;3.40;;;6.60;1.00;;;;;;6181737;23;20150;-78
2023/03/28 09:35:20;;;;;;;10.50;3.53;;;6.70;1.00;;;;;;6181463;23;20649;-77
2023/03/28 09:37:50;;;;;;;8.20;2.77;;;6.90;1.00;;;;;;6184007;23;20150;-78
2023/03/28 09:40:31;;;;;;;9.47;2.70;;;7.00;1.00;;;;;;6187103;23;20205;-78
2023/03/28 09:43:06;;;;;;;6.70;2.43;;;7.00;1.00;;;;;;6213669;23;20529;-78
2023/03/28 09:45:35;;;;;;;6.13;2.07;;;7.00;1.00;;;;;;6208139;23;20181;-78
2023/03/28 09:48:06;;;;;;;10.17;2.60;;;6.90;1.00;;;;;;6179121;23;20162;-77
2023/03/28 09:50:31;;;;;;;7.57;2.30;;;6.90;1.00;;;;;;6211166;23;20147;-77
2023/03/28 09:52:58;;;;;;;9.40;3.00;;;7.10;1.00;;;;;;6209989;23;20166;-77
2023/03/28 09:55:29;;;;;;;12.33;2.43;;;7.20;1.00;;;;;;6207240;23;20257;-77
2023/03/28 09:58:04;;;;;;;9.13;2.30;;;7.20;1.00;;;;;;6180966;23;20158;-77
2023/03/28 10:00:34;;;;;;;8.73;2.17;;;7.30;1.00;;;;;;6205696;23;20595;-78
2023/03/28 10:03:00;;;;;;;7.93;2.23;;;7.50;1.00;;;;;;6207180;23;20169;-79
2023/03/28 10:05:31;;;;;;;11.57;2.33;;;7.60;1.00;;;;;;6207939;23;20646;-78
2023/03/28 10:08:01;;;;;;;11.17;2.40;;;7.40;1.00;;;;;;6208951;23;20145;-79
2023/03/28 10:10:27;;;;;;;10.70;2.40;;;7.20;1.00;;;;;;6207161;23;20134;-78
2023/03/28 10:13:01;;;;;;;9.23;2.40;;;6.90;1.00;;;;;;6207287;23;20158;-78
2023/03/28 10:15:45;;;;;;;8.27;2.17;;;6.80;1.00;;;;;;6207145;23;20630;-79
2023/03/28 10:18:17;;;;;;;8.30;1.87;;;6.60;1.00;;;;;;6180731;23;20155;-78
2023/03/28 10:20:42;;;;;;;6.93;2.80;;;6.70;1.00;;;;;;6208325;23;20145;-78
2023/03/28 10:23:11;;;;;;;9.77;2.27;;;6.90;1.00;;;;;;6207013;23;20154;-78
2023/03/28 10:25:41;;;;;;;8.20;2.50;;;7.10;1.00;;;;;;6207439;23;20189;-78
2023/03/28 10:28:12;;;;;;;5.57;2.37;;;7.30;1.00;;;;;;6181005;23;20154;-78
2023/03/28 10:30:39;;;;;;;8.60;2.50;;;7.40;1.00;;;;;;6207394;23;20215;-78
2023/03/28 10:33:16;;;;;;;7.33;2.00;;;7.60;1.00;;;;;;6207162;23;20150;-79
2023/03/28 10:35:52;;;;;;;8.43;2.07;;;7.90;1.00;;;;;;6206771;23;20939;-78
2023/03/28 10:38:19;;;;;;;9.13;2.00;;;7.90;1.00;;;;;;6204838;23;20161;-76
2023/03/28 10:41:18;;;;;;;7.13;2.07;;;7.70;1.00;;;;;;6177053;23;20249;-77
2023/03/28 10:43:44;;;;;;;9.50;2.10;;;7.50;1.00;;;;;;6204121;23;20147;-77
2023/03/28 10:46:20;;;;;;;8.60;2.37;;;7.40;1.00;;;;;;6204615;23;20182;-80
2023/03/28 10:49:13;;;;;;;8.50;2.13;;;7.20;1.00;;;;;;6204716;23;20142;-77
2023/03/28 10:51:40;;;;;;;7.73;2.00;;;7.30;1.00;;;;;;6205492;23;20134;-78
2023/03/28 10:54:52;;;;;;;7.33;1.50;;;7.30;1.00;;;;;;6204849;23;20158;-77
2023/03/28 10:57:49;;;;;;;4.93;1.70;;;7.30;1.00;;;;;;6138932;23;20502;-77
2023/03/28 11:00:41;;;;;;;6.83;1.87;;;7.30;1.00;;;;;;6180355;23;20154;-78
2023/03/28 11:03:45;;;;;;;4.27;1.87;;;7.40;1.00;;;;;;6159974;23;20162;-78
2023/03/28 11:06:25;;;;;;;7.50;2.57;;;7.40;1.00;;;;;;6205986;23;20741;-77
2023/03/28 11:09:13;;;;;;;6.33;1.93;;;7.60;1.00;;;;;;6180054;23;20193;-77
2023/03/28 11:11:59;;;;;;;8.30;2.37;;;7.60;1.00;;;;;;6205617;23;20173;-77
2023/03/28 11:14:49;;;;;;;6.33;2.10;;;7.60;1.00;;;;;;6205426;23;20138;-76
2023/03/28 11:17:34;;;;;;;5.93;2.20;;;7.90;1.00;;;;;;6205834;23;20143;-75
2023/03/28 11:20:09;;;;;;;5.87;2.03;;;8.00;1.00;;;;;;6206209;23;20217;-78
2023/03/28 11:22:58;;;;;;;8.17;2.37;;;8.20;1.00;;;;;;6205770;23;20138;-77
2023/03/28 11:25:48;;;;;;;6.33;2.20;;;8.40;1.00;;;;;;6205925;23;20192;-78
2023/03/28 11:28:51;;;;;;;5.97;2.70;;;8.30;1.00;;;;;;6208429;23;20139;-78
2023/03/28 11:31:46;;;;;;;12.20;2.20;;;8.20;1.00;;;;;;6207534;23;20273;-77
2023/03/28 11:34:18;;;;;;;7.07;2.07;;;8.20;1.00;;;;;;6206732;23;20138;-76
2023/03/28 11:37:02;;;;;;;8.83;1.90;;;8.10;1.00;;;;;;6206248;23;20150;-77
2023/03/28 11:39:41;;;;;;;7.37;1.90;;;8.10;1.00;;;;;;6179449;23;20181;-77
2023/03/28 11:42:30;;;;;;;5.33;1.87;;;8.20;1.00;;;;;;6204695;23;20173;-75
2023/03/28 11:45:23;;;;;;;7.40;2.23;;;8.30;1.00;;;;;;6204382;23;20182;-75
2023/03/28 11:48:05;;;;;;;8.47;2.30;;;8.40;1.00;;;;;;6205511;23;20139;-77
2023/03/28 11:50:50;;;;;;;6.33;2.20;;;8.60;1.00;;;;;;6178646;23;20150;-77
2023/03/28 11:53:28;;;;;;;7.23;1.97;;;8.50;1.00;;;;;;6204716;23;20480;-77
2023/03/28 11:56:35;;;;;;;5.67;2.50;;;8.70;1.00;;;;;;6205692;23;20174;-76
2023/03/28 11:59:34;;;;;;;9.67;2.63;;;8.80;1.00;;;;;;6178473;23;20210;-76
2023/03/28 12:02:23;;;;;;;6.30;2.00;;;9.10;1.00;;;;;;6206520;23;20142;-77
2023/03/28 12:04:57;;;;;;;6.07;2.20;;;9.00;1.00;;;;;;6207658;23;20627;-77
2023/03/28 12:07:42;;;;;;;5.10;1.80;;;8.90;1.00;;;;;;6207929;23;20141;-77
2023/03/28 12:10:35;;;;;;;7.37;2.10;;;8.50;1.00;;;;;;6182567;23;20178;-78
2023/03/28 12:13:05;;;;;;;7.73;2.50;;;8.40;1.00;;;;;;6209628;23;20461;-77
2023/03/28 12:15:54;;;;;;;9.27;2.30;;;8.40;1.00;;;;;;6182696;23;20178;-78
2023/03/28 12:18:31;;;;;;;7.03;2.40;;;8.50;1.00;;;;;;6182165;23;20150;-78
2023/03/28 12:21:21;;;;;;;5.40;2.17;;;8.70;1.00;;;;;;6181860;23;20225;-79
2023/03/28 12:24:12;;;;;;;7.33;2.10;;;8.80;1.00;;;;;;6209510;23;20146;-76
2023/03/28 12:27:09;;;;;;;7.03;2.13;;;8.80;1.00;;;;;;6208313;23;20171;-78
2023/03/28 12:30:05;;;;;;;6.07;2.20;;;8.60;1.00;;;;;;6209889;23;20162;-79
2023/03/28 12:32:50;;;;;;;9.13;2.30;;;8.40;1.00;;;;;;6182641;23;20250;-79
2023/03/28 12:35:39;;;;;;;6.20;2.20;;;8.20;1.00;;;;;;6206650;23;20235;-79
2023/03/28 12:38:38;;;;;;;6.30;2.20;;;8.20;1.00;;;;;;6208373;23;20186;-79
2023/03/28 12:41:07;;;;;;;6.50;1.77;;;8.30;1.00;;;;;;6148851;23;20174;-76
2023/03/28 12:43:56;;;;;;;4.97;1.40;;;8.60;1.00;;;;;;6209928;23;20142;-79
2023/03/28 12:46:29;;;;;;;4.93;1.30;;;8.50;1.00;;;;;;6209580;23;20185;-78
2023/03/28 12:49:00;;;;;;;3.60;1.00;;;8.30;1.00;;;;;;6210570;23;20177;-78
2023/03/28 12:51:29;;;;;;;7.57;2.00;;;8.20;1.00;;;;;;6182548;23;20158;-76
2023/03/28 12:54:06;;;;;;;9.53;2.30;;;8.00;1.00;;;;;;6182764;23;20162;-76
2023/03/28 12:56:32;;;;;;;6.53;1.50;;;8.00;1.00;;;;;;6210701;23;20511;-79
2023/03/28 12:58:58;;;;;;;5.07;1.70;;;8.00;1.00;;;;;;6209166;23;20158;-79
2023/03/28 13:01:59;;;;;;;6.87;2.47;;;8.00;1.00;;;;;;6207404;23;20188;-77
2023/03/28 13:04:33;;;;;;;5.97;2.00;;;8.10;1.00;;;;;;6172297;23;20606;-78
2023/03/28 13:07:11;;;;;;;5.23;1.90;;;8.10;1.00;;;;;;6206933;23;20606;-78
2023/03/28 13:09:56;;;;;;;5.53;2.03;;;8.20;1.00;;;;;;6207478;23;20146;-77
2023/03/28 13:12:49;;;;;;;7.50;2.47;;;8.40;1.00;;;;;;6206101;23;20587;-74
2023/03/28 13:15:15;;;;;;;6.20;2.07;;;8.50;1.00;;;;;;6130526;23;20270;-79
2023/03/28 13:18:07;;;;;;;6.33;2.03;;;8.20;1.00;;;;;;6179806;23;20649;-78
2023/03/28 13:20:33;;;;;;;6.33;1.80;;;8.60;1.00;;;;;;6210039;23;20483;-76
2023/03/28 13:23:06;;;;;;;4.90;1.77;;;8.80;1.00;;;;;;6209134;23;20153;-77
2023/03/28 13:25:33;;;;;;;6.90;1.70;;;8.90;1.00;;;;;;6180126;23;20206;-79
2023/03/28 13:27:59;;;;;;;5.83;1.80;;;9.00;1.00;;;;;;6210965;23;20545;-77